sensor_id;sensor_type;location;lat;lon;timestamp;temperature;humidity
24618;DHT22;12762;51.730;5.356;2022-09-23T00:01:35;11.90;61.40
24618;DHT22;12762;51.730;5.356;2022-09-23T00:04:01;11.80;61.30
24618;DHT22;12762;51.730;5.356;2022-09-23T00:06:31;11.80;61.40
24618;DHT22;12762;51.730;5.356;2022-09-23T00:08:57;11.80;61.50
24618;DHT22;12762;51.730;5.356;2022-09-23T00:11:26;11.80;61.50
24618;DHT22;12762;51.730;5.356;2022-09-23T00:13:56;11.80;61.40
24618;DHT22;12762;51.730;5.356;2022-09-23T00:16:27;11.80;61.50
24618;DHT22;12762;51.730;5.356;2022-09-23T00:18:54;11.70;61.70
24618;DHT22;12762;51.730;5.356;2022-09-23T00:21:21;11.70;61.80
24618;DHT22;12762;51.730;5.356;2022-09-23T00:23:48;11.70;61.80
24618;DHT22;12762;51.730;5.356;2022-09-23T00:26:17;11.70;61.90
24618;DHT22;12762;51.730;5.356;2022-09-23T00:28:44;11.70;61.90
24618;DHT22;12762;51.730;5.356;2022-09-23T00:31:18;11.70;61.90
24618;DHT22;12762;51.730;5.356;2022-09-23T00:33:45;11.60;61.80
24618;DHT22;12762;51.730;5.356;2022-09-23T00:36:14;11.60;61.80
24618;DHT22;12762;51.730;5.356;2022-09-23T00:38:42;11.60;62.00
24618;DHT22;12762;51.730;5.356;2022-09-23T00:41:10;11.60;62.10
24618;DHT22;12762;51.730;5.356;2022-09-23T00:43:45;11.60;62.20
24618;DHT22;12762;51.730;5.356;2022-09-23T00:46:28;11.60;62.40
24618;DHT22;12762;51.730;5.356;2022-09-23T00:49:03;11.60;62.10
24618;DHT22;12762;51.730;5.356;2022-09-23T00:51:35;11.50;62.30
24618;DHT22;12762;51.730;5.356;2022-09-23T00:54:04;11.50;62.30
24618;DHT22;12762;51.730;5.356;2022-09-23T00:56:32;11.50;62.30
24618;DHT22;12762;51.730;5.356;2022-09-23T00:59:00;11.50;62.30
24618;DHT22;12762;51.730;5.356;2022-09-23T01:01:30;11.50;62.40
24618;DHT22;12762;51.730;5.356;2022-09-23T01:03:57;11.50;62.60
24618;DHT22;12762;51.730;5.356;2022-09-23T01:06:27;11.50;62.70
24618;DHT22;12762;51.730;5.356;2022-09-23T01:08:55;11.50;63.00
24618;DHT22;12762;51.730;5.356;2022-09-23T01:16:58;11.40;62.70
24618;DHT22;12762;51.730;5.356;2022-09-23T01:22:16;11.30;62.50
24618;DHT22;12762;51.730;5.356;2022-09-23T01:30:36;11.20;62.50
24618;DHT22;12762;51.730;5.356;2022-09-23T01:35:46;11.20;62.60
24618;DHT22;12762;51.730;5.356;2022-09-23T01:38:26;11.20;63.00
24618;DHT22;12762;51.730;5.356;2022-09-23T01:41:04;11.10;62.90
24618;DHT22;12762;51.730;5.356;2022-09-23T01:43:58;11.10;63.00
24618;DHT22;12762;51.730;5.356;2022-09-23T01:46:36;11.10;63.10
24618;DHT22;12762;51.730;5.356;2022-09-23T01:49:16;11.10;63.40
24618;DHT22;12762;51.730;5.356;2022-09-23T01:51:50;11.10;63.60
24618;DHT22;12762;51.730;5.356;2022-09-23T01:54:23;11.10;63.70
24618;DHT22;12762;51.730;5.356;2022-09-23T01:57:08;11.10;63.70
24618;DHT22;12762;51.730;5.356;2022-09-23T01:59:39;11.00;63.70
24618;DHT22;12762;51.730;5.356;2022-09-23T02:02:15;11.00;63.70
24618;DHT22;12762;51.730;5.356;2022-09-23T02:04:50;11.00;63.80
24618;DHT22;12762;51.730;5.356;2022-09-23T02:07:24;11.00;63.90
24618;DHT22;12762;51.730;5.356;2022-09-23T02:10:08;11.00;64.80
24618;DHT22;12762;51.730;5.356;2022-09-23T02:12:37;11.10;64.30
24618;DHT22;12762;51.730;5.356;2022-09-23T02:15:19;11.10;64.30
24618;DHT22;12762;51.730;5.356;2022-09-23T02:18:00;11.10;64.40
24618;DHT22;12762;51.730;5.356;2022-09-23T02:20:33;11.10;64.60
24618;DHT22;12762;51.730;5.356;2022-09-23T02:23:11;11.10;64.60
24618;DHT22;12762;51.730;5.356;2022-09-23T02:25:46;11.20;64.80
24618;DHT22;12762;51.730;5.356;2022-09-23T02:28:31;11.20;64.80
24618;DHT22;12762;51.730;5.356;2022-09-23T02:31:08;11.20;64.90
24618;DHT22;12762;51.730;5.356;2022-09-23T02:36:45;11.10;65.60
24618;DHT22;12762;51.730;5.356;2022-09-23T02:39:17;11.10;64.60
24618;DHT22;12762;51.730;5.356;2022-09-23T02:42:01;11.10;64.60
24618;DHT22;12762;51.730;5.356;2022-09-23T02:44:30;11.10;64.70
24618;DHT22;12762;51.730;5.356;2022-09-23T02:46:58;11.10;64.90
24618;DHT22;12762;51.730;5.356;2022-09-23T02:49:27;11.00;65.00
24618;DHT22;12762;51.730;5.356;2022-09-23T02:51:56;11.00;65.00
24618;DHT22;12762;51.730;5.356;2022-09-23T02:54:27;11.00;65.00
24618;DHT22;12762;51.730;5.356;2022-09-23T02:56:54;11.00;65.00
24618;DHT22;12762;51.730;5.356;2022-09-23T02:59:23;11.00;64.90
24618;DHT22;12762;51.730;5.356;2022-09-23T03:05:09;10.90;65.20
24618;DHT22;12762;51.730;5.356;2022-09-23T03:19:18;10.80;65.50
24618;DHT22;12762;51.730;5.356;2022-09-23T03:24:23;10.80;65.80
24618;DHT22;12762;51.730;5.356;2022-09-23T03:26:52;10.80;65.90
24618;DHT22;12762;51.730;5.356;2022-09-23T03:29:21;10.80;66.00
24618;DHT22;12762;51.730;5.356;2022-09-23T03:31:48;10.80;66.10
24618;DHT22;12762;51.730;5.356;2022-09-23T03:34:19;10.80;66.20
24618;DHT22;12762;51.730;5.356;2022-09-23T03:37:02;10.80;66.50
24618;DHT22;12762;51.730;5.356;2022-09-23T03:42:10;10.70;66.50
24618;DHT22;12762;51.730;5.356;2022-09-23T03:44:44;10.80;66.70
24618;DHT22;12762;51.730;5.356;2022-09-23T03:47:12;10.80;66.80
24618;DHT22;12762;51.730;5.356;2022-09-23T03:49:42;10.70;66.70
24618;DHT22;12762;51.730;5.356;2022-09-23T03:52:10;10.70;66.90
24618;DHT22;12762;51.730;5.356;2022-09-23T03:54:37;10.70;66.90
24618;DHT22;12762;51.730;5.356;2022-09-23T03:57:03;10.70;67.00
24618;DHT22;12762;51.730;5.356;2022-09-23T03:59:30;10.80;67.20
24618;DHT22;12762;51.730;5.356;2022-09-23T04:01:58;10.70;67.20
24618;DHT22;12762;51.730;5.356;2022-09-23T04:04:25;10.70;67.30
24618;DHT22;12762;51.730;5.356;2022-09-23T04:06:57;10.70;67.40
24618;DHT22;12762;51.730;5.356;2022-09-23T04:09:24;10.70;67.40
24618;DHT22;12762;51.730;5.356;2022-09-23T04:11:52;10.70;67.50
24618;DHT22;12762;51.730;5.356;2022-09-23T04:14:20;10.70;67.50
24618;DHT22;12762;51.730;5.356;2022-09-23T04:16:47;10.70;67.60
24618;DHT22;12762;51.730;5.356;2022-09-23T04:19:15;10.80;67.70
24618;DHT22;12762;51.730;5.356;2022-09-23T04:21:43;10.80;67.80
24618;DHT22;12762;51.730;5.356;2022-09-23T04:24:13;10.80;67.90
24618;DHT22;12762;51.730;5.356;2022-09-23T04:26:40;10.80;67.90
24618;DHT22;12762;51.730;5.356;2022-09-23T04:29:09;10.80;67.90
24618;DHT22;12762;51.730;5.356;2022-09-23T04:31:37;10.80;67.90
24618;DHT22;12762;51.730;5.356;2022-09-23T04:34:04;10.80;68.00
24618;DHT22;12762;51.730;5.356;2022-09-23T04:36:31;10.80;68.10
24618;DHT22;12762;51.730;5.356;2022-09-23T04:38:58;10.90;68.20
24618;DHT22;12762;51.730;5.356;2022-09-23T04:41:25;10.90;69.10
24618;DHT22;12762;51.730;5.356;2022-09-23T04:43:52;10.90;68.30
24618;DHT22;12762;51.730;5.356;2022-09-23T04:46:19;10.90;68.30
24618;DHT22;12762;51.730;5.356;2022-09-23T04:48:46;10.90;68.30
24618;DHT22;12762;51.730;5.356;2022-09-23T04:51:18;10.90;68.30
24618;DHT22;12762;51.730;5.356;2022-09-23T04:53:47;10.90;68.50
24618;DHT22;12762;51.730;5.356;2022-09-23T04:56:16;10.90;68.40
24618;DHT22;12762;51.730;5.356;2022-09-23T04:58:44;10.90;68.40
24618;DHT22;12762;51.730;5.356;2022-09-23T05:01:25;10.90;68.40
24618;DHT22;12762;51.730;5.356;2022-09-23T05:03:55;11.00;68.50
24618;DHT22;12762;51.730;5.356;2022-09-23T05:06:24;11.00;68.50
24618;DHT22;12762;51.730;5.356;2022-09-23T05:08:52;11.00;68.50
24618;DHT22;12762;51.730;5.356;2022-09-23T05:11:20;11.00;68.50
24618;DHT22;12762;51.730;5.356;2022-09-23T05:13:49;11.00;68.60
24618;DHT22;12762;51.730;5.356;2022-09-23T05:16:16;11.00;68.70
24618;DHT22;12762;51.730;5.356;2022-09-23T05:18:45;11.00;68.70
24618;DHT22;12762;51.730;5.356;2022-09-23T05:21:13;11.00;68.70
24618;DHT22;12762;51.730;5.356;2022-09-23T05:23:47;11.00;68.80
24618;DHT22;12762;51.730;5.356;2022-09-23T05:26:14;11.00;68.80
24618;DHT22;12762;51.730;5.356;2022-09-23T05:28:41;11.00;68.80
24618;DHT22;12762;51.730;5.356;2022-09-23T05:33:55;11.00;68.90
24618;DHT22;12762;51.730;5.356;2022-09-23T05:36:23;11.00;69.00
24618;DHT22;12762;51.730;5.356;2022-09-23T05:38:51;11.00;68.90
24618;DHT22;12762;51.730;5.356;2022-09-23T05:41:20;11.00;68.90
24618;DHT22;12762;51.730;5.356;2022-09-23T05:43:50;11.00;69.00
24618;DHT22;12762;51.730;5.356;2022-09-23T05:46:42;11.00;69.00
24618;DHT22;12762;51.730;5.356;2022-09-23T05:49:11;11.00;69.00
24618;DHT22;12762;51.730;5.356;2022-09-23T05:51:38;11.10;69.10
24618;DHT22;12762;51.730;5.356;2022-09-23T05:54:07;11.10;69.00
24618;DHT22;12762;51.730;5.356;2022-09-23T05:56:35;11.10;69.10
24618;DHT22;12762;51.730;5.356;2022-09-23T05:59:03;11.10;69.10
24618;DHT22;12762;51.730;5.356;2022-09-23T06:01:32;11.10;69.10
24618;DHT22;12762;51.730;5.356;2022-09-23T06:04:03;11.10;69.10
24618;DHT22;12762;51.730;5.356;2022-09-23T06:06:33;11.20;69.30
24618;DHT22;12762;51.730;5.356;2022-09-23T06:09:00;11.20;69.30
24618;DHT22;12762;51.730;5.356;2022-09-23T06:11:33;11.20;69.20
24618;DHT22;12762;51.730;5.356;2022-09-23T06:14:01;11.20;69.30
24618;DHT22;12762;51.730;5.356;2022-09-23T06:16:30;11.20;69.20
24618;DHT22;12762;51.730;5.356;2022-09-23T06:18:57;11.30;69.40
24618;DHT22;12762;51.730;5.356;2022-09-23T06:21:33;11.30;69.30
24618;DHT22;12762;51.730;5.356;2022-09-23T06:24:00;11.30;69.40
24618;DHT22;12762;51.730;5.356;2022-09-23T06:26:28;11.30;69.40
24618;DHT22;12762;51.730;5.356;2022-09-23T06:28:59;11.40;69.40
24618;DHT22;12762;51.730;5.356;2022-09-23T06:31:27;11.40;69.50
24618;DHT22;12762;51.730;5.356;2022-09-23T06:33:54;11.50;69.50
24618;DHT22;12762;51.730;5.356;2022-09-23T06:36:42;11.50;69.50
24618;DHT22;12762;51.730;5.356;2022-09-23T06:39:13;11.50;69.50
24618;DHT22;12762;51.730;5.356;2022-09-23T06:41:39;11.50;69.40
24618;DHT22;12762;51.730;5.356;2022-09-23T06:44:06;11.60;69.50
24618;DHT22;12762;51.730;5.356;2022-09-23T06:46:33;11.60;69.50
24618;DHT22;12762;51.730;5.356;2022-09-23T06:49:02;11.60;69.50
24618;DHT22;12762;51.730;5.356;2022-09-23T06:51:29;11.60;69.40
24618;DHT22;12762;51.730;5.356;2022-09-23T06:53:56;11.60;69.40
24618;DHT22;12762;51.730;5.356;2022-09-23T06:56:23;11.60;69.40
24618;DHT22;12762;51.730;5.356;2022-09-23T06:58:51;11.60;69.50
24618;DHT22;12762;51.730;5.356;2022-09-23T07:01:18;11.70;69.50
24618;DHT22;12762;51.730;5.356;2022-09-23T07:03:46;11.70;69.50
24618;DHT22;12762;51.730;5.356;2022-09-23T07:06:14;11.70;69.50
24618;DHT22;12762;51.730;5.356;2022-09-23T07:08:44;11.80;69.60
24618;DHT22;12762;51.730;5.356;2022-09-23T07:11:13;11.80;69.50
24618;DHT22;12762;51.730;5.356;2022-09-23T07:13:41;11.80;69.50
24618;DHT22;12762;51.730;5.356;2022-09-23T07:16:12;11.90;69.50
24618;DHT22;12762;51.730;5.356;2022-09-23T07:18:39;11.90;69.50
24618;DHT22;12762;51.730;5.356;2022-09-23T07:21:14;12.00;69.50
24618;DHT22;12762;51.730;5.356;2022-09-23T07:23:46;12.00;69.50
24618;DHT22;12762;51.730;5.356;2022-09-23T07:26:14;12.10;69.50
24618;DHT22;12762;51.730;5.356;2022-09-23T07:28:41;12.20;69.60
24618;DHT22;12762;51.730;5.356;2022-09-23T07:31:16;12.20;69.50
24618;DHT22;12762;51.730;5.356;2022-09-23T07:34:00;12.30;69.40
24618;DHT22;12762;51.730;5.356;2022-09-23T07:36:28;12.40;69.30
24618;DHT22;12762;51.730;5.356;2022-09-23T07:38:59;12.50;69.30
24618;DHT22;12762;51.730;5.356;2022-09-23T07:41:30;12.50;69.30
24618;DHT22;12762;51.730;5.356;2022-09-23T07:43:58;12.60;69.30
24618;DHT22;12762;51.730;5.356;2022-09-23T07:46:29;12.70;69.20
24618;DHT22;12762;51.730;5.356;2022-09-23T07:48:56;13.00;69.50
24618;DHT22;12762;51.730;5.356;2022-09-23T07:51:27;13.30;69.30
24618;DHT22;12762;51.730;5.356;2022-09-23T07:54:01;13.60;69.10
24618;DHT22;12762;51.730;5.356;2022-09-23T07:56:29;13.80;68.60
24618;DHT22;12762;51.730;5.356;2022-09-23T07:58:56;13.90;68.10
24618;DHT22;12762;51.730;5.356;2022-09-23T08:01:28;14.10;67.90
24618;DHT22;12762;51.730;5.356;2022-09-23T08:03:59;14.30;67.80
24618;DHT22;12762;51.730;5.356;2022-09-23T08:06:26;14.50;67.50
24618;DHT22;12762;51.730;5.356;2022-09-23T08:08:56;14.80;67.30
24618;DHT22;12762;51.730;5.356;2022-09-23T08:11:24;15.00;66.80
24618;DHT22;12762;51.730;5.356;2022-09-23T08:13:51;15.10;66.50
24618;DHT22;12762;51.730;5.356;2022-09-23T08:16:19;15.20;66.10
24618;DHT22;12762;51.730;5.356;2022-09-23T08:18:47;15.30;66.00
24618;DHT22;12762;51.730;5.356;2022-09-23T08:21:19;15.40;65.90
24618;DHT22;12762;51.730;5.356;2022-09-23T08:23:46;15.50;65.70
24618;DHT22;12762;51.730;5.356;2022-09-23T08:26:16;15.60;65.40
24618;DHT22;12762;51.730;5.356;2022-09-23T08:28:48;15.70;65.30
24618;DHT22;12762;51.730;5.356;2022-09-23T08:31:15;15.70;65.10
24618;DHT22;12762;51.730;5.356;2022-09-23T08:33:42;15.80;65.00
24618;DHT22;12762;51.730;5.356;2022-09-23T08:36:09;15.90;65.10
24618;DHT22;12762;51.730;5.356;2022-09-23T08:38:36;15.90;65.00
24618;DHT22;12762;51.730;5.356;2022-09-23T08:43:53;16.10;64.80
24618;DHT22;12762;51.730;5.356;2022-09-23T08:46:27;16.20;64.70
24618;DHT22;12762;51.730;5.356;2022-09-23T08:48:58;16.30;64.60
24618;DHT22;12762;51.730;5.356;2022-09-23T08:51:32;16.40;64.50
24618;DHT22;12762;51.730;5.356;2022-09-23T08:54:01;16.40;64.20
24618;DHT22;12762;51.730;5.356;2022-09-23T08:56:28;16.50;64.10
24618;DHT22;12762;51.730;5.356;2022-09-23T09:02:18;16.60;64.10
24618;DHT22;12762;51.730;5.356;2022-09-23T09:04:50;16.80;63.90
24618;DHT22;12762;51.730;5.356;2022-09-23T09:07:21;16.80;63.60
24618;DHT22;12762;51.730;5.356;2022-09-23T09:12:43;17.10;63.60
24618;DHT22;12762;51.730;5.356;2022-09-23T09:15:21;17.20;63.50
24618;DHT22;12762;51.730;5.356;2022-09-23T09:23:25;17.60;62.60
24618;DHT22;12762;51.730;5.356;2022-09-23T09:25:56;17.70;62.10
24618;DHT22;12762;51.730;5.356;2022-09-23T09:30:59;17.70;62.00
24618;DHT22;12762;51.730;5.356;2022-09-23T09:33:34;17.80;62.00
24618;DHT22;12762;51.730;5.356;2022-09-23T09:36:19;17.90;61.90
24618;DHT22;12762;51.730;5.356;2022-09-23T09:38:51;18.00;61.90
24618;DHT22;12762;51.730;5.356;2022-09-23T09:41:20;18.10;61.70
24618;DHT22;12762;51.730;5.356;2022-09-23T09:43:52;18.20;61.60
24618;DHT22;12762;51.730;5.356;2022-09-23T09:49:21;18.50;61.40
24618;DHT22;12762;51.730;5.356;2022-09-23T09:52:11;18.60;61.10
24618;DHT22;12762;51.730;5.356;2022-09-23T09:54:42;18.70;60.90
24618;DHT22;12762;51.730;5.356;2022-09-23T09:57:31;18.80;60.80
24618;DHT22;12762;51.730;5.356;2022-09-23T10:00:18;18.90;60.50
24618;DHT22;12762;51.730;5.356;2022-09-23T10:02:45;19.00;60.00
24618;DHT22;12762;51.730;5.356;2022-09-23T10:05:31;18.90;59.50
24618;DHT22;12762;51.730;5.356;2022-09-23T10:13:21;19.20;59.60
24618;DHT22;12762;51.730;5.356;2022-09-23T10:15:52;19.40;59.30
24618;DHT22;12762;51.730;5.356;2022-09-23T10:18:36;19.50;59.00
24618;DHT22;12762;51.730;5.356;2022-09-23T10:21:15;19.60;58.70
24618;DHT22;12762;51.730;5.356;2022-09-23T10:23:52;19.70;58.50
24618;DHT22;12762;51.730;5.356;2022-09-23T10:26:41;19.80;58.30
24618;DHT22;12762;51.730;5.356;2022-09-23T10:29:29;19.90;58.10
24618;DHT22;12762;51.730;5.356;2022-09-23T10:34:50;19.90;57.80
24618;DHT22;12762;51.730;5.356;2022-09-23T10:39:51;20.00;57.60
24618;DHT22;12762;51.730;5.356;2022-09-23T10:45:40;20.20;57.70
24618;DHT22;12762;51.730;5.356;2022-09-23T10:51:13;20.40;57.30
24618;DHT22;12762;51.730;5.356;2022-09-23T10:56:53;20.60;57.40
24618;DHT22;12762;51.730;5.356;2022-09-23T11:08:41;20.80;56.10
24618;DHT22;12762;51.730;5.356;2022-09-23T11:17:28;20.90;56.30
24618;DHT22;12762;51.730;5.356;2022-09-23T11:25:44;21.10;55.50
24618;DHT22;12762;51.730;5.356;2022-09-23T11:37:23;21.30;55.10
24618;DHT22;12762;51.730;5.356;2022-09-23T11:40:05;21.20;54.80
24618;DHT22;12762;51.730;5.356;2022-09-23T11:45:33;21.40;55.20
24618;DHT22;12762;51.730;5.356;2022-09-23T11:48:12;21.50;54.60
24618;DHT22;12762;51.730;5.356;2022-09-23T11:53:53;21.60;54.70
24618;DHT22;12762;51.730;5.356;2022-09-23T11:56:37;21.60;54.70
24618;DHT22;12762;51.730;5.356;2022-09-23T11:59:30;21.60;53.50
24618;DHT22;12762;51.730;5.356;2022-09-23T12:05:03;21.60;53.60
24618;DHT22;12762;51.730;5.356;2022-09-23T12:10:17;21.60;53.30
24618;DHT22;12762;51.730;5.356;2022-09-23T12:12:58;21.60;52.80
24618;DHT22;12762;51.730;5.356;2022-09-23T12:18:31;21.50;53.40
24618;DHT22;12762;51.730;5.356;2022-09-23T12:21:26;21.60;53.60
24618;DHT22;12762;51.730;5.356;2022-09-23T12:27:14;21.70;53.40
24618;DHT22;12762;51.730;5.356;2022-09-23T12:29:53;21.70;53.80
24618;DHT22;12762;51.730;5.356;2022-09-23T12:32:21;21.80;53.10
24618;DHT22;12762;51.730;5.356;2022-09-23T12:34:52;21.70;52.70
24618;DHT22;12762;51.730;5.356;2022-09-23T12:37:28;21.70;52.70
24618;DHT22;12762;51.730;5.356;2022-09-23T12:39:59;21.70;52.70
24618;DHT22;12762;51.730;5.356;2022-09-23T12:42:27;21.60;52.40
24618;DHT22;12762;51.730;5.356;2022-09-23T12:45:36;21.50;52.20
24618;DHT22;12762;51.730;5.356;2022-09-23T12:48:41;21.50;52.70
24618;DHT22;12762;51.730;5.356;2022-09-23T12:51:15;21.50;53.00
24618;DHT22;12762;51.730;5.356;2022-09-23T12:53:55;21.60;53.00
24618;DHT22;12762;51.730;5.356;2022-09-23T12:56:27;21.60;52.90
24618;DHT22;12762;51.730;5.356;2022-09-23T13:01:43;21.50;52.60
24618;DHT22;12762;51.730;5.356;2022-09-23T13:04:43;21.50;52.40
24618;DHT22;12762;51.730;5.356;2022-09-23T13:07:31;21.50;52.30
24618;DHT22;12762;51.730;5.356;2022-09-23T13:10:24;21.40;52.30
24618;DHT22;12762;51.730;5.356;2022-09-23T13:12:53;21.40;52.50
24618;DHT22;12762;51.730;5.356;2022-09-23T13:15:30;21.50;53.50
24618;DHT22;12762;51.730;5.356;2022-09-23T13:20:52;21.40;52.40
24618;DHT22;12762;51.730;5.356;2022-09-23T13:25:55;21.30;52.40
24618;DHT22;12762;51.730;5.356;2022-09-23T13:28:52;21.20;52.50
24618;DHT22;12762;51.730;5.356;2022-09-23T13:31:19;21.20;52.70
24618;DHT22;12762;51.730;5.356;2022-09-23T13:33:50;21.10;52.70
24618;DHT22;12762;51.730;5.356;2022-09-23T13:36:19;21.10;52.60
24618;DHT22;12762;51.730;5.356;2022-09-23T13:38:46;21.00;52.70
24618;DHT22;12762;51.730;5.356;2022-09-23T13:41:22;20.90;52.70
24618;DHT22;12762;51.730;5.356;2022-09-23T13:43:51;20.90;53.00
24618;DHT22;12762;51.730;5.356;2022-09-23T13:46:21;20.90;53.10
24618;DHT22;12762;51.730;5.356;2022-09-23T13:48:53;20.90;53.30
24618;DHT22;12762;51.730;5.356;2022-09-23T13:51:32;20.90;53.40
24618;DHT22;12762;51.730;5.356;2022-09-23T13:54:01;20.90;53.40
24618;DHT22;12762;51.730;5.356;2022-09-23T13:56:33;20.80;53.50
24618;DHT22;12762;51.730;5.356;2022-09-23T14:02:13;20.90;53.60
24618;DHT22;12762;51.730;5.356;2022-09-23T14:04:42;20.90;53.60
24618;DHT22;12762;51.730;5.356;2022-09-23T14:07:13;20.80;53.80
24618;DHT22;12762;51.730;5.356;2022-09-23T14:09:48;20.80;53.70
24618;DHT22;12762;51.730;5.356;2022-09-23T14:12:15;20.80;53.80
24618;DHT22;12762;51.730;5.356;2022-09-23T14:14:49;20.70;53.80
24618;DHT22;12762;51.730;5.356;2022-09-23T14:17:19;20.70;54.00
24618;DHT22;12762;51.730;5.356;2022-09-23T14:19:49;20.70;54.00
24618;DHT22;12762;51.730;5.356;2022-09-23T14:22:29;20.60;54.00
24618;DHT22;12762;51.730;5.356;2022-09-23T14:24:57;20.60;54.20
24618;DHT22;12762;51.730;5.356;2022-09-23T14:27:31;20.50;55.00
24618;DHT22;12762;51.730;5.356;2022-09-23T14:30:01;20.50;54.40
24618;DHT22;12762;51.730;5.356;2022-09-23T14:32:28;20.40;54.50
24618;DHT22;12762;51.730;5.356;2022-09-23T14:37:32;20.30;54.80
24618;DHT22;12762;51.730;5.356;2022-09-23T14:40:31;20.30;55.00
24618;DHT22;12762;51.730;5.356;2022-09-23T14:43:04;20.30;55.20
24618;DHT22;12762;51.730;5.356;2022-09-23T14:45:37;20.20;55.10
24618;DHT22;12762;51.730;5.356;2022-09-23T14:48:13;20.20;55.50
24618;DHT22;12762;51.730;5.356;2022-09-23T14:50:59;20.10;55.60
24618;DHT22;12762;51.730;5.356;2022-09-23T14:58:53;20.00;56.20
24618;DHT22;12762;51.730;5.356;2022-09-23T15:04:26;19.90;56.70
24618;DHT22;12762;51.730;5.356;2022-09-23T15:07:03;19.90;56.90
24618;DHT22;12762;51.730;5.356;2022-09-23T15:09:38;19.90;57.40
24618;DHT22;12762;51.730;5.356;2022-09-23T15:12:15;19.80;57.50
24618;DHT22;12762;51.730;5.356;2022-09-23T15:14:48;19.80;57.70
24618;DHT22;12762;51.730;5.356;2022-09-23T15:20:00;19.80;58.30
24618;DHT22;12762;51.730;5.356;2022-09-23T15:22:31;19.80;58.70
24618;DHT22;12762;51.730;5.356;2022-09-23T15:30:36;19.80;59.50
24618;DHT22;12762;51.730;5.356;2022-09-23T15:33:04;19.80;59.60
24618;DHT22;12762;51.730;5.356;2022-09-23T15:35:31;19.70;59.80
24618;DHT22;12762;51.730;5.356;2022-09-23T15:37:59;19.70;60.10
24618;DHT22;12762;51.730;5.356;2022-09-23T15:40:32;19.70;60.30
24618;DHT22;12762;51.730;5.356;2022-09-23T15:43:06;19.70;60.50
24618;DHT22;12762;51.730;5.356;2022-09-23T15:45:37;19.70;60.60
24618;DHT22;12762;51.730;5.356;2022-09-23T15:48:14;19.70;60.80
24618;DHT22;12762;51.730;5.356;2022-09-23T15:50:41;19.70;60.90
24618;DHT22;12762;51.730;5.356;2022-09-23T15:53:15;19.70;61.00
24618;DHT22;12762;51.730;5.356;2022-09-23T15:55:43;19.60;60.80
24618;DHT22;12762;51.730;5.356;2022-09-23T15:58:10;19.60;60.80
24618;DHT22;12762;51.730;5.356;2022-09-23T16:00:37;19.50;61.60
24618;DHT22;12762;51.730;5.356;2022-09-23T16:03:04;19.40;60.80
24618;DHT22;12762;51.730;5.356;2022-09-23T16:05:35;19.30;60.90
24618;DHT22;12762;51.730;5.356;2022-09-23T16:08:08;19.30;61.90
24618;DHT22;12762;51.730;5.356;2022-09-23T16:10:36;19.20;61.10
24618;DHT22;12762;51.730;5.356;2022-09-23T16:13:05;19.20;61.20
24618;DHT22;12762;51.730;5.356;2022-09-23T16:15:32;19.10;61.40
24618;DHT22;12762;51.730;5.356;2022-09-23T16:18:00;19.00;61.30
24618;DHT22;12762;51.730;5.356;2022-09-23T16:20:28;19.00;61.50
24618;DHT22;12762;51.730;5.356;2022-09-23T16:22:58;18.90;61.70
24618;DHT22;12762;51.730;5.356;2022-09-23T16:25:27;18.90;61.90
24618;DHT22;12762;51.730;5.356;2022-09-23T16:27:56;18.90;62.00
24618;DHT22;12762;51.730;5.356;2022-09-23T16:30:25;18.80;61.90
24618;DHT22;12762;51.730;5.356;2022-09-23T16:32:53;18.80;62.10
24618;DHT22;12762;51.730;5.356;2022-09-23T16:35:24;18.80;62.20
24618;DHT22;12762;51.730;5.356;2022-09-23T16:37:54;18.80;62.40
24618;DHT22;12762;51.730;5.356;2022-09-23T16:40:22;18.70;62.40
24618;DHT22;12762;51.730;5.356;2022-09-23T16:42:50;18.70;62.60
24618;DHT22;12762;51.730;5.356;2022-09-23T16:45:19;18.70;62.70
24618;DHT22;12762;51.730;5.356;2022-09-23T16:47:49;18.70;63.10
24618;DHT22;12762;51.730;5.356;2022-09-23T16:50:20;18.60;63.20
24618;DHT22;12762;51.730;5.356;2022-09-23T16:52:52;18.60;63.40
24618;DHT22;12762;51.730;5.356;2022-09-23T16:55:24;18.50;63.60
24618;DHT22;12762;51.730;5.356;2022-09-23T16:57:53;18.50;63.90
24618;DHT22;12762;51.730;5.356;2022-09-23T17:00:20;18.40;64.00
24618;DHT22;12762;51.730;5.356;2022-09-23T17:03:07;18.40;64.30
24618;DHT22;12762;51.730;5.356;2022-09-23T17:05:54;18.30;64.50
24618;DHT22;12762;51.730;5.356;2022-09-23T17:08:21;18.20;64.70
24618;DHT22;12762;51.730;5.356;2022-09-23T17:10:54;18.20;64.90
24618;DHT22;12762;51.730;5.356;2022-09-23T17:13:23;18.10;65.20
24618;DHT22;12762;51.730;5.356;2022-09-23T17:15:51;18.10;65.40
24618;DHT22;12762;51.730;5.356;2022-09-23T17:18:19;18.10;65.70
24618;DHT22;12762;51.730;5.356;2022-09-23T17:20:57;18.00;65.90
24618;DHT22;12762;51.730;5.356;2022-09-23T17:23:25;17.90;66.00
24618;DHT22;12762;51.730;5.356;2022-09-23T17:25:52;17.90;66.20
24618;DHT22;12762;51.730;5.356;2022-09-23T17:28:20;17.80;66.40
24618;DHT22;12762;51.730;5.356;2022-09-23T17:30:50;17.80;66.70
24618;DHT22;12762;51.730;5.356;2022-09-23T17:33:21;17.80;67.10
24618;DHT22;12762;51.730;5.356;2022-09-23T17:35:48;17.70;67.10
24618;DHT22;12762;51.730;5.356;2022-09-23T17:38:15;17.70;67.10
24618;DHT22;12762;51.730;5.356;2022-09-23T17:40:49;17.70;67.30
24618;DHT22;12762;51.730;5.356;2022-09-23T17:43:17;17.70;67.60
24618;DHT22;12762;51.730;5.356;2022-09-23T17:45:49;17.70;67.70
24618;DHT22;12762;51.730;5.356;2022-09-23T17:48:16;17.60;67.70
24618;DHT22;12762;51.730;5.356;2022-09-23T17:51:02;17.60;67.80
24618;DHT22;12762;51.730;5.356;2022-09-23T17:53:31;17.60;67.80
24618;DHT22;12762;51.730;5.356;2022-09-23T17:56:00;17.60;69.00
24618;DHT22;12762;51.730;5.356;2022-09-23T17:58:33;17.60;68.10
24618;DHT22;12762;51.730;5.356;2022-09-23T18:01:01;17.50;68.20
24618;DHT22;12762;51.730;5.356;2022-09-23T18:03:29;17.50;68.40
24618;DHT22;12762;51.730;5.356;2022-09-23T18:08:33;17.40;68.90
24618;DHT22;12762;51.730;5.356;2022-09-23T18:11:00;17.30;69.00
24618;DHT22;12762;51.730;5.356;2022-09-23T18:13:27;17.30;69.20
24618;DHT22;12762;51.730;5.356;2022-09-23T18:15:54;17.20;69.50
24618;DHT22;12762;51.730;5.356;2022-09-23T18:18:21;17.20;69.60
24618;DHT22;12762;51.730;5.356;2022-09-23T18:20:48;17.20;69.70
24618;DHT22;12762;51.730;5.356;2022-09-23T18:23:14;17.20;69.70
24618;DHT22;12762;51.730;5.356;2022-09-23T18:25:41;17.20;69.90
24618;DHT22;12762;51.730;5.356;2022-09-23T18:28:08;17.10;70.00
24618;DHT22;12762;51.730;5.356;2022-09-23T18:30:35;17.10;70.20
24618;DHT22;12762;51.730;5.356;2022-09-23T18:33:01;17.10;70.30
24618;DHT22;12762;51.730;5.356;2022-09-23T18:35:29;17.00;70.60
24618;DHT22;12762;51.730;5.356;2022-09-23T18:37:56;17.00;70.80
24618;DHT22;12762;51.730;5.356;2022-09-23T18:40:23;17.00;70.90
24618;DHT22;12762;51.730;5.356;2022-09-23T18:42:50;16.90;70.90